EZY3488 LIMC-LFPG
Flight info
| Callsign | EZY3488 |
|---|---|
| Flight time | 1h 18m |
| Altitude | 34000 |
| Route | AOSTA DCT ORSUD DCT MOLUS DCT UNKIR DCT GIVRI DCT TINIL |
| Aircraft | A319/M-SDE3FGHIRWY/LB1 |
Departure
| Time | 2026-05-09 08:59 |
|---|---|
| Airport | Milan Malpensa International Airport (LIMC) |
Arrival
| Time | 2026-05-09 10:17 |
|---|---|
| Airport | Charles de Gaulle International Airport (LFPG) |
| Time | Latitude | Longitude | Altitude | Speed | Heading |
|---|---|---|---|---|---|
| 2026-05-09 08:36 | 45.63123 | 8.71569 | 744 ft | 0 kts | 259° |
| 2026-05-09 08:45 | 45.63124 | 8.71575 | 744 ft | 3 kts | 259° |
| 2026-05-09 08:46 | 45.63129 | 8.71611 | 745 ft | 3 kts | 259° |
| 2026-05-09 08:46 | 45.63133 | 8.71642 | 745 ft | 3 kts | 259° |
| 2026-05-09 08:46 | 45.63144 | 8.71669 | 746 ft | 3 kts | 216° |
| 2026-05-09 08:46 | 45.63161 | 8.71677 | 746 ft | 0 kts | 180° |
| 2026-05-09 08:47 | 45.63160 | 8.71677 | 746 ft | 0 kts | 180° |
| 2026-05-09 08:48 | 45.63159 | 8.71677 | 746 ft | 0 kts | 180° |
| 2026-05-09 08:48 | 45.63155 | 8.71677 | 746 ft | 3 kts | 180° |
| 2026-05-09 08:49 | 45.63109 | 8.71683 | 745 ft | 10 kts | 158° |
| 2026-05-09 08:49 | 45.63042 | 8.71727 | 744 ft | 14 kts | 159° |
| 2026-05-09 08:49 | 45.62980 | 8.71795 | 743 ft | 14 kts | 94° |
| 2026-05-09 08:49 | 45.62994 | 8.71920 | 743 ft | 15 kts | 82° |
| 2026-05-09 08:50 | 45.62971 | 8.72045 | 742 ft | 17 kts | 148° |
| 2026-05-09 08:50 | 45.62862 | 8.72085 | 739 ft | 18 kts | 169° |
| 2026-05-09 08:50 | 45.62740 | 8.72119 | 736 ft | 21 kts | 169° |
| 2026-05-09 08:50 | 45.62602 | 8.72156 | 733 ft | 23 kts | 169° |
| 2026-05-09 08:51 | 45.62458 | 8.72197 | 733 ft | 23 kts | 169° |
| 2026-05-09 08:51 | 45.62318 | 8.72234 | 732 ft | 18 kts | 169° |
| 2026-05-09 08:51 | 45.62218 | 8.72287 | 729 ft | 6 kts | 121° |
| 2026-05-09 08:51 | 45.62230 | 8.72351 | 728 ft | 0 kts | 77° |
| 2026-05-09 08:52 | 45.62230 | 8.72352 | 728 ft | 0 kts | 77° |
| 2026-05-09 08:52 | 45.62236 | 8.72390 | 727 ft | 9 kts | 78° |
| 2026-05-09 08:53 | 45.62253 | 8.72514 | 723 ft | 19 kts | 79° |
| 2026-05-09 08:53 | 45.62278 | 8.72711 | 718 ft | 23 kts | 80° |
| 2026-05-09 08:53 | 45.62306 | 8.72908 | 716 ft | 22 kts | 79° |
| 2026-05-09 08:53 | 45.62230 | 8.73043 | 714 ft | 22 kts | 169° |
| 2026-05-09 08:54 | 45.62078 | 8.73084 | 710 ft | 23 kts | 170° |
| 2026-05-09 08:54 | 45.61929 | 8.73125 | 707 ft | 17 kts | 169° |
| 2026-05-09 08:54 | 45.61811 | 8.73158 | 704 ft | 19 kts | 166° |
| 2026-05-09 08:54 | 45.61721 | 8.73259 | 700 ft | 12 kts | 125° |
| 2026-05-09 08:55 | 45.61664 | 8.73377 | 697 ft | 16 kts | 124° |
| 2026-05-09 08:55 | 45.61642 | 8.73423 | 697 ft | 2 kts | 124° |
| 2026-05-09 08:56 | 45.61640 | 8.73428 | 697 ft | 3 kts | 124° |
| 2026-05-09 08:56 | 45.61608 | 8.73500 | 696 ft | 12 kts | 117° |
| 2026-05-09 08:57 | 45.61594 | 8.73628 | 696 ft | 14 kts | 83° |
| 2026-05-09 08:57 | 45.61635 | 8.73724 | 698 ft | 13 kts | 14° |
| 2026-05-09 08:57 | 45.61682 | 8.73720 | 699 ft | 0 kts | 348° |
| 2026-05-09 08:57 | 45.61683 | 8.73719 | 699 ft | 0 kts | 348° |
| 2026-05-09 08:58 | 45.61692 | 8.73717 | 699 ft | 9 kts | 349° |
| 2026-05-09 08:58 | 45.61956 | 8.73644 | 705 ft | 80 kts | 349° |
| 2026-05-09 08:58 | 45.62589 | 8.73470 | 716 ft | 139 kts | 350° |
| 2026-05-09 08:58 | 45.63454 | 8.73247 | 1089 ft | 154 kts | 351° |
| 2026-05-09 08:59 | 45.64383 | 8.73069 | 1592 ft | 162 kts | 359° |
| 2026-05-09 08:59 | 45.65335 | 8.73050 | 2249 ft | 164 kts | 1° |
| 2026-05-09 08:59 | 45.66307 | 8.73039 | 2924 ft | 166 kts | 1° |
| 2026-05-09 08:59 | 45.67314 | 8.73016 | 3474 ft | 176 kts | 0° |
| 2026-05-09 09:00 | 45.68389 | 8.72983 | 3993 ft | 189 kts | 0° |
| 2026-05-09 09:00 | 45.69528 | 8.72912 | 4608 ft | 197 kts | 356° |
| 2026-05-09 09:00 | 45.70696 | 8.72724 | 5210 ft | 205 kts | 353° |
| 2026-05-09 09:00 | 45.71928 | 8.72513 | 5813 ft | 213 kts | 351° |
| 2026-05-09 09:01 | 45.73150 | 8.71864 | 6256 ft | 227 kts | 322° |
| 2026-05-09 09:01 | 45.73985 | 8.70209 | 6605 ft | 243 kts | 285° |
| 2026-05-09 09:01 | 45.74012 | 8.68171 | 7199 ft | 248 kts | 252° |
| 2026-05-09 09:01 | 45.73408 | 8.66292 | 8005 ft | 246 kts | 242° |
| 2026-05-09 09:02 | 45.72884 | 8.64297 | 8496 ft | 260 kts | 261° |
| 2026-05-09 09:02 | 45.72924 | 8.62069 | 8948 ft | 276 kts | 279° |
| 2026-05-09 09:02 | 45.73237 | 8.59787 | 9480 ft | 287 kts | 281° |
| 2026-05-09 09:02 | 45.73564 | 8.57390 | 10183 ft | 290 kts | 279° |
| 2026-05-09 09:03 | 45.73837 | 8.55012 | 10822 ft | 296 kts | 278° |
| 2026-05-09 09:03 | 45.74073 | 8.52492 | 11256 ft | 310 kts | 276° |
| 2026-05-09 09:03 | 45.74274 | 8.49846 | 11764 ft | 321 kts | 276° |
| 2026-05-09 09:03 | 45.74448 | 8.47180 | 12450 ft | 324 kts | 275° |
| 2026-05-09 09:04 | 45.74609 | 8.44477 | 13178 ft | 326 kts | 275° |
| 2026-05-09 09:04 | 45.74760 | 8.41739 | 13892 ft | 328 kts | 275° |
| 2026-05-09 09:04 | 45.74907 | 8.38976 | 14583 ft | 330 kts | 275° |
| 2026-05-09 09:04 | 45.75050 | 8.36192 | 15263 ft | 331 kts | 275° |
| 2026-05-09 09:05 | 45.75191 | 8.33405 | 15974 ft | 333 kts | 274° |
| 2026-05-09 09:05 | 45.75333 | 8.30562 | 16649 ft | 335 kts | 274° |
| 2026-05-09 09:05 | 45.75473 | 8.27720 | 17350 ft | 337 kts | 274° |
| 2026-05-09 09:05 | 45.75611 | 8.24896 | 18016 ft | 338 kts | 274° |
| 2026-05-09 09:06 | 45.75748 | 8.22065 | 18678 ft | 340 kts | 274° |
| 2026-05-09 09:06 | 45.75886 | 8.19169 | 19354 ft | 340 kts | 274° |
| 2026-05-09 09:06 | 45.76020 | 8.16341 | 19999 ft | 340 kts | 274° |
| 2026-05-09 09:06 | 45.76156 | 8.13487 | 20648 ft | 341 kts | 274° |
| 2026-05-09 09:07 | 45.76292 | 8.10599 | 21297 ft | 341 kts | 274° |
| 2026-05-09 09:07 | 45.76427 | 8.07728 | 21949 ft | 340 kts | 274° |
| 2026-05-09 09:07 | 45.76557 | 8.04891 | 22572 ft | 340 kts | 274° |
| 2026-05-09 09:07 | 45.76690 | 8.02047 | 23148 ft | 340 kts | 274° |
| 2026-05-09 09:08 | 45.76821 | 7.99182 | 23708 ft | 341 kts | 274° |
| 2026-05-09 09:08 | 45.76951 | 7.96357 | 24251 ft | 342 kts | 274° |
| 2026-05-09 09:08 | 45.77083 | 7.93462 | 24719 ft | 345 kts | 274° |
| 2026-05-09 09:08 | 45.77215 | 7.90566 | 25081 ft | 350 kts | 274° |
| 2026-05-09 09:09 | 45.77348 | 7.87602 | 25477 ft | 353 kts | 274° |
| 2026-05-09 09:09 | 45.77478 | 7.84649 | 25906 ft | 356 kts | 274° |
| 2026-05-09 09:09 | 45.77611 | 7.81651 | 26365 ft | 357 kts | 274° |
| 2026-05-09 09:09 | 45.77743 | 7.78675 | 26795 ft | 358 kts | 274° |
| 2026-05-09 09:10 | 45.77876 | 7.75645 | 27185 ft | 361 kts | 274° |
| 2026-05-09 09:10 | 45.78008 | 7.72632 | 27554 ft | 363 kts | 274° |
| 2026-05-09 09:10 | 45.78142 | 7.69557 | 27942 ft | 365 kts | 274° |
| 2026-05-09 09:10 | 45.78275 | 7.66456 | 28314 ft | 367 kts | 274° |
| 2026-05-09 09:11 | 45.78405 | 7.63412 | 28670 ft | 369 kts | 274° |
| 2026-05-09 09:11 | 45.78538 | 7.60286 | 29049 ft | 371 kts | 274° |
| 2026-05-09 09:11 | 45.78669 | 7.57160 | 29417 ft | 372 kts | 274° |
| 2026-05-09 09:11 | 45.78798 | 7.54062 | 29743 ft | 374 kts | 273° |
| 2026-05-09 09:12 | 45.78929 | 7.50893 | 30062 ft | 376 kts | 274° |
| 2026-05-09 09:12 | 45.79064 | 7.47732 | 30376 ft | 379 kts | 275° |
| 2026-05-09 09:12 | 45.79380 | 7.44571 | 30700 ft | 381 kts | 281° |
| 2026-05-09 09:12 | 45.79937 | 7.41512 | 31079 ft | 382 kts | 286° |
| 2026-05-09 09:13 | 45.80739 | 7.38509 | 31540 ft | 382 kts | 291° |
| 2026-05-09 09:13 | 45.81747 | 7.35694 | 32054 ft | 381 kts | 297° |
| 2026-05-09 09:13 | 45.82981 | 7.33006 | 32516 ft | 382 kts | 302° |
| 2026-05-09 09:13 | 45.84414 | 7.30520 | 32897 ft | 386 kts | 307° |
| 2026-05-09 09:14 | 45.86047 | 7.28253 | 33234 ft | 391 kts | 313° |
| 2026-05-09 09:14 | 45.87858 | 7.26227 | 33619 ft | 393 kts | 317° |
| 2026-05-09 09:14 | 45.89715 | 7.24310 | 33985 ft | 394 kts | 317° |
| 2026-05-09 09:14 | 45.91634 | 7.22367 | 34145 ft | 396 kts | 317° |
| 2026-05-09 09:15 | 45.93527 | 7.20453 | 34139 ft | 397 kts | 317° |
| 2026-05-09 09:15 | 45.97310 | 7.16615 | 34143 ft | 396 kts | 317° |
| 2026-05-09 09:16 | 46.01075 | 7.12770 | 34145 ft | 395 kts | 317° |
| 2026-05-09 09:16 | 46.06727 | 7.06972 | 34137 ft | 398 kts | 317° |
| 2026-05-09 09:17 | 46.10487 | 7.03114 | 34127 ft | 400 kts | 317° |
| 2026-05-09 09:17 | 46.14262 | 6.99226 | 34145 ft | 400 kts | 317° |
| 2026-05-09 09:18 | 46.18055 | 6.95312 | 34143 ft | 401 kts | 317° |
| 2026-05-09 09:18 | 46.21841 | 6.91394 | 34140 ft | 403 kts | 318° |
| 2026-05-09 09:19 | 46.25681 | 6.87421 | 34119 ft | 405 kts | 318° |
| 2026-05-09 09:19 | 46.29514 | 6.83448 | 34126 ft | 403 kts | 318° |
| 2026-05-09 09:20 | 46.33481 | 6.79324 | 34133 ft | 405 kts | 318° |
| 2026-05-09 09:20 | 46.37322 | 6.75311 | 34110 ft | 407 kts | 317° |
| 2026-05-09 09:21 | 46.40937 | 6.70974 | 34104 ft | 404 kts | 312° |
| 2026-05-09 09:21 | 46.44200 | 6.66098 | 34101 ft | 402 kts | 306° |
| 2026-05-09 09:22 | 46.47048 | 6.60793 | 34089 ft | 399 kts | 300° |
| 2026-05-09 09:22 | 46.49468 | 6.55153 | 34079 ft | 400 kts | 296° |
| 2026-05-09 09:23 | 46.49800 | 6.54315 | 34078 ft | 401 kts | 296° |
| 2026-05-09 09:23 | 46.51865 | 6.49068 | 34059 ft | 401 kts | 296° |
| 2026-05-09 09:24 | 46.54166 | 6.43209 | 34066 ft | 402 kts | 296° |
| 2026-05-09 09:24 | 46.56459 | 6.37370 | 34070 ft | 401 kts | 296° |
| 2026-05-09 09:25 | 46.58750 | 6.31523 | 34074 ft | 403 kts | 296° |
| 2026-05-09 09:25 | 46.61058 | 6.25625 | 34067 ft | 404 kts | 296° |
| 2026-05-09 09:26 | 46.63383 | 6.19682 | 34065 ft | 403 kts | 296° |
| 2026-05-09 09:26 | 46.65698 | 6.13736 | 34059 ft | 404 kts | 296° |
| 2026-05-09 09:27 | 46.68031 | 6.07744 | 34065 ft | 404 kts | 296° |
| 2026-05-09 09:27 | 46.70354 | 6.01752 | 34060 ft | 405 kts | 296° |
| 2026-05-09 09:28 | 46.72667 | 5.95781 | 34052 ft | 405 kts | 296° |
| 2026-05-09 09:28 | 46.74998 | 5.89748 | 34053 ft | 406 kts | 296° |
| 2026-05-09 09:29 | 46.77435 | 5.83461 | 34049 ft | 407 kts | 298° |
| 2026-05-09 09:29 | 46.80192 | 5.77735 | 34049 ft | 410 kts | 305° |
| 2026-05-09 09:30 | 46.83500 | 5.72626 | 34046 ft | 413 kts | 313° |
| 2026-05-09 09:30 | 46.87358 | 5.68198 | 34043 ft | 417 kts | 322° |
| 2026-05-09 09:31 | 46.91634 | 5.64522 | 34043 ft | 419 kts | 327° |
| 2026-05-09 09:32 | 46.98151 | 5.59340 | 34046 ft | 418 kts | 327° |
| 2026-05-09 09:32 | 47.02509 | 5.55851 | 34039 ft | 419 kts | 327° |
| 2026-05-09 09:33 | 47.06834 | 5.52370 | 34045 ft | 420 kts | 327° |
| 2026-05-09 09:33 | 47.11142 | 5.48895 | 34032 ft | 420 kts | 327° |
| 2026-05-09 09:34 | 47.15491 | 5.45373 | 34040 ft | 421 kts | 327° |
| 2026-05-09 09:34 | 47.19844 | 5.41840 | 34039 ft | 424 kts | 327° |
| 2026-05-09 09:36 | 47.37467 | 5.27484 | 34039 ft | 432 kts | 327° |
| 2026-05-09 09:37 | 47.41927 | 5.23831 | 34031 ft | 432 kts | 327° |
| 2026-05-09 09:37 | 47.46391 | 5.20167 | 34040 ft | 434 kts | 327° |
| 2026-05-09 09:38 | 47.50873 | 5.16475 | 34032 ft | 439 kts | 327° |
| 2026-05-09 09:38 | 47.55465 | 5.12685 | 33918 ft | 436 kts | 327° |
| 2026-05-09 09:38 | 47.57777 | 5.10595 | 33258 ft | 438 kts | 324° |
| 2026-05-09 09:39 | 47.58706 | 5.09679 | 32833 ft | 442 kts | 323° |
| 2026-05-09 09:39 | 47.59828 | 5.08506 | 32289 ft | 447 kts | 321° |
| 2026-05-09 09:39 | 47.62003 | 5.06015 | 31312 ft | 454 kts | 319° |
| 2026-05-09 09:39 | 47.64223 | 5.03265 | 30498 ft | 456 kts | 318° |
| 2026-05-09 09:40 | 47.66357 | 5.00562 | 29795 ft | 456 kts | 318° |
| 2026-05-09 09:40 | 47.68514 | 4.97824 | 29121 ft | 456 kts | 318° |
| 2026-05-09 09:40 | 47.70728 | 4.95027 | 28507 ft | 453 kts | 318° |
| 2026-05-09 09:40 | 47.72940 | 4.92237 | 28056 ft | 446 kts | 318° |
| 2026-05-09 09:41 | 47.75097 | 4.89521 | 27772 ft | 435 kts | 318° |
| 2026-05-09 09:41 | 47.77237 | 4.86817 | 27792 ft | 430 kts | 318° |
| 2026-05-09 09:41 | 47.79339 | 4.84156 | 27807 ft | 430 kts | 318° |
| 2026-05-09 09:41 | 47.81461 | 4.81465 | 27801 ft | 430 kts | 318° |
| 2026-05-09 09:42 | 47.83636 | 4.78701 | 27356 ft | 429 kts | 318° |
| 2026-05-09 09:42 | 47.85742 | 4.76021 | 26863 ft | 425 kts | 318° |
| 2026-05-09 09:42 | 47.87855 | 4.73329 | 26382 ft | 421 kts | 318° |
| 2026-05-09 09:42 | 47.89939 | 4.70671 | 25922 ft | 417 kts | 318° |
| 2026-05-09 09:43 | 47.91957 | 4.68097 | 25472 ft | 413 kts | 318° |
| 2026-05-09 09:43 | 47.93994 | 4.65495 | 25020 ft | 409 kts | 318° |
| 2026-05-09 09:43 | 47.96005 | 4.62922 | 24569 ft | 405 kts | 318° |
| 2026-05-09 09:43 | 47.98009 | 4.60356 | 24122 ft | 401 kts | 318° |
| 2026-05-09 09:44 | 47.99947 | 4.57872 | 23685 ft | 398 kts | 318° |
| 2026-05-09 09:44 | 48.01938 | 4.55315 | 23243 ft | 395 kts | 318° |
| 2026-05-09 09:44 | 48.03875 | 4.52825 | 22811 ft | 392 kts | 318° |
| 2026-05-09 09:44 | 48.05821 | 4.50323 | 22368 ft | 389 kts | 318° |
| 2026-05-09 09:45 | 48.07803 | 4.47771 | 21914 ft | 386 kts | 318° |
| 2026-05-09 09:45 | 48.09763 | 4.45245 | 21459 ft | 383 kts | 318° |
| 2026-05-09 09:45 | 48.11568 | 4.42915 | 21033 ft | 381 kts | 318° |
| 2026-05-09 09:45 | 48.13530 | 4.40382 | 20573 ft | 378 kts | 318° |
| 2026-05-09 09:46 | 48.15478 | 4.37862 | 20118 ft | 376 kts | 318° |
| 2026-05-09 09:46 | 48.17352 | 4.35437 | 19672 ft | 374 kts | 318° |
| 2026-05-09 09:46 | 48.19093 | 4.33181 | 19257 ft | 372 kts | 317° |
| 2026-05-09 09:46 | 48.20919 | 4.30811 | 18822 ft | 370 kts | 317° |
| 2026-05-09 09:47 | 48.22775 | 4.28401 | 18378 ft | 368 kts | 317° |
| 2026-05-09 09:47 | 48.24635 | 4.25967 | 17940 ft | 365 kts | 316° |
| 2026-05-09 09:47 | 48.26360 | 4.23461 | 17504 ft | 362 kts | 312° |
| 2026-05-09 09:47 | 48.27933 | 4.20838 | 17088 ft | 360 kts | 308° |
| 2026-05-09 09:48 | 48.29461 | 4.18078 | 16645 ft | 358 kts | 308° |
| 2026-05-09 09:48 | 48.30943 | 4.15356 | 16324 ft | 352 kts | 307° |
| 2026-05-09 09:48 | 48.32377 | 4.12723 | 16191 ft | 341 kts | 307° |
| 2026-05-09 09:48 | 48.33778 | 4.10157 | 16075 ft | 329 kts | 308° |
| 2026-05-09 09:49 | 48.35117 | 4.07709 | 15979 ft | 318 kts | 308° |
| 2026-05-09 09:49 | 48.36438 | 4.05297 | 15999 ft | 317 kts | 308° |
| 2026-05-09 09:49 | 48.37699 | 4.02991 | 16006 ft | 317 kts | 308° |
| 2026-05-09 09:49 | 48.39052 | 4.00514 | 15994 ft | 317 kts | 308° |
| 2026-05-09 09:50 | 48.40437 | 3.97978 | 15698 ft | 319 kts | 308° |
| 2026-05-09 09:50 | 48.41744 | 3.95581 | 15307 ft | 318 kts | 308° |
| 2026-05-09 09:50 | 48.43039 | 3.93203 | 14935 ft | 317 kts | 308° |
| 2026-05-09 09:50 | 48.44329 | 3.90833 | 14579 ft | 315 kts | 308° |
| 2026-05-09 09:51 | 48.45602 | 3.88493 | 14241 ft | 314 kts | 308° |
| 2026-05-09 09:51 | 48.46830 | 3.86234 | 13906 ft | 312 kts | 308° |
| 2026-05-09 09:51 | 48.48064 | 3.83960 | 13570 ft | 310 kts | 308° |
| 2026-05-09 09:51 | 48.49308 | 3.81665 | 13236 ft | 308 kts | 307° |
| 2026-05-09 09:52 | 48.50528 | 3.79413 | 12907 ft | 306 kts | 307° |
| 2026-05-09 09:52 | 48.51743 | 3.77170 | 12582 ft | 304 kts | 307° |
| 2026-05-09 09:52 | 48.52939 | 3.74959 | 12255 ft | 302 kts | 307° |
| 2026-05-09 09:52 | 48.54094 | 3.72691 | 11937 ft | 298 kts | 303° |
| 2026-05-09 09:53 | 48.55102 | 3.70428 | 11917 ft | 296 kts | 301° |
| 2026-05-09 09:53 | 48.56141 | 3.68011 | 11940 ft | 296 kts | 301° |
| 2026-05-09 09:53 | 48.57140 | 3.65672 | 11961 ft | 297 kts | 301° |
| 2026-05-09 09:53 | 48.58141 | 3.63333 | 11975 ft | 297 kts | 301° |
| 2026-05-09 09:54 | 48.59152 | 3.60971 | 11694 ft | 298 kts | 301° |
| 2026-05-09 09:54 | 48.60139 | 3.58666 | 11345 ft | 297 kts | 300° |
| 2026-05-09 09:54 | 48.61050 | 3.56284 | 11014 ft | 294 kts | 295° |
| 2026-05-09 09:54 | 48.61791 | 3.53859 | 10908 ft | 288 kts | 290° |
| 2026-05-09 09:55 | 48.62435 | 3.51428 | 10936 ft | 290 kts | 290° |
| 2026-05-09 09:55 | 48.63063 | 3.48983 | 10959 ft | 291 kts | 289° |
| 2026-05-09 09:55 | 48.63696 | 3.46506 | 10982 ft | 291 kts | 289° |
| 2026-05-09 09:55 | 48.64320 | 3.44071 | 11006 ft | 291 kts | 289° |
| 2026-05-09 09:56 | 48.64945 | 3.41631 | 11019 ft | 292 kts | 289° |
| 2026-05-09 09:56 | 48.65574 | 3.39179 | 11023 ft | 291 kts | 289° |
| 2026-05-09 09:56 | 48.66194 | 3.36764 | 11028 ft | 291 kts | 290° |
| 2026-05-09 09:56 | 48.66810 | 3.34364 | 11031 ft | 292 kts | 289° |
| 2026-05-09 09:57 | 48.67425 | 3.31969 | 11031 ft | 292 kts | 289° |
| 2026-05-09 09:57 | 48.68041 | 3.29568 | 11035 ft | 291 kts | 289° |
| 2026-05-09 09:57 | 48.68662 | 3.27144 | 11036 ft | 291 kts | 289° |
| 2026-05-09 09:57 | 48.69284 | 3.24709 | 11032 ft | 292 kts | 289° |
| 2026-05-09 09:58 | 48.69893 | 3.22328 | 11036 ft | 291 kts | 289° |
| 2026-05-09 09:58 | 48.70515 | 3.19897 | 11033 ft | 291 kts | 289° |
| 2026-05-09 09:58 | 48.71131 | 3.17481 | 11034 ft | 292 kts | 289° |
| 2026-05-09 09:58 | 48.71750 | 3.15055 | 11033 ft | 292 kts | 289° |
| 2026-05-09 09:59 | 48.72362 | 3.12649 | 11034 ft | 292 kts | 289° |
| 2026-05-09 09:59 | 48.72987 | 3.10194 | 11036 ft | 292 kts | 289° |
| 2026-05-09 09:59 | 48.73596 | 3.07796 | 11038 ft | 291 kts | 289° |
| 2026-05-09 09:59 | 48.74220 | 3.05337 | 11036 ft | 291 kts | 289° |
| 2026-05-09 10:00 | 48.74828 | 3.02937 | 11037 ft | 291 kts | 289° |
| 2026-05-09 10:00 | 48.75445 | 3.00504 | 11039 ft | 291 kts | 289° |
| 2026-05-09 10:00 | 48.76062 | 2.98065 | 11037 ft | 291 kts | 289° |
| 2026-05-09 10:00 | 48.76673 | 2.95648 | 11037 ft | 291 kts | 289° |
| 2026-05-09 10:01 | 48.77280 | 2.93242 | 11034 ft | 291 kts | 289° |
| 2026-05-09 10:01 | 48.77893 | 2.90813 | 11033 ft | 292 kts | 289° |
| 2026-05-09 10:01 | 48.78491 | 2.88443 | 11033 ft | 292 kts | 289° |
| 2026-05-09 10:01 | 48.79102 | 2.86014 | 11034 ft | 292 kts | 289° |
| 2026-05-09 10:02 | 48.79705 | 2.83617 | 11037 ft | 291 kts | 289° |
| 2026-05-09 10:02 | 48.80310 | 2.81207 | 11032 ft | 292 kts | 289° |
| 2026-05-09 10:02 | 48.80916 | 2.78789 | 11030 ft | 292 kts | 289° |
| 2026-05-09 10:02 | 48.81515 | 2.76401 | 11028 ft | 292 kts | 289° |
| 2026-05-09 10:03 | 48.82119 | 2.73986 | 11026 ft | 292 kts | 289° |
| 2026-05-09 10:03 | 48.82731 | 2.71544 | 10994 ft | 292 kts | 289° |
| 2026-05-09 10:03 | 48.83321 | 2.69177 | 10693 ft | 293 kts | 289° |
| 2026-05-09 10:03 | 48.83937 | 2.66710 | 10379 ft | 291 kts | 289° |
| 2026-05-09 10:04 | 48.84530 | 2.64332 | 10098 ft | 288 kts | 289° |
| 2026-05-09 10:04 | 48.85123 | 2.61954 | 9776 ft | 287 kts | 289° |
| 2026-05-09 10:04 | 48.85717 | 2.59562 | 9442 ft | 286 kts | 289° |
| 2026-05-09 10:04 | 48.86303 | 2.57195 | 9120 ft | 285 kts | 289° |
| 2026-05-09 10:05 | 48.86887 | 2.54840 | 8796 ft | 285 kts | 289° |
| 2026-05-09 10:05 | 48.87490 | 2.52404 | 8461 ft | 284 kts | 289° |
| 2026-05-09 10:05 | 48.88094 | 2.49964 | 8131 ft | 283 kts | 289° |
| 2026-05-09 10:05 | 48.88680 | 2.47595 | 7806 ft | 282 kts | 289° |
| 2026-05-09 10:06 | 48.89264 | 2.45233 | 7483 ft | 281 kts | 289° |
| 2026-05-09 10:06 | 48.89836 | 2.42912 | 7174 ft | 280 kts | 289° |
| 2026-05-09 10:06 | 48.90413 | 2.40573 | 6864 ft | 279 kts | 289° |
| 2026-05-09 10:06 | 48.90978 | 2.38279 | 6553 ft | 278 kts | 289° |
| 2026-05-09 10:07 | 48.91547 | 2.35963 | 6238 ft | 278 kts | 290° |
| 2026-05-09 10:07 | 48.92118 | 2.33639 | 5918 ft | 277 kts | 289° |
| 2026-05-09 10:07 | 48.92697 | 2.31277 | 5595 ft | 277 kts | 289° |
| 2026-05-09 10:07 | 48.93267 | 2.28952 | 5281 ft | 276 kts | 289° |
| 2026-05-09 10:08 | 48.93840 | 2.26612 | 4968 ft | 275 kts | 289° |
| 2026-05-09 10:08 | 48.94412 | 2.24272 | 4655 ft | 274 kts | 290° |
| 2026-05-09 10:08 | 48.94966 | 2.22007 | 4495 ft | 268 kts | 290° |
| 2026-05-09 10:08 | 48.95625 | 2.19815 | 4331 ft | 261 kts | 305° |
| 2026-05-09 10:09 | 48.96701 | 2.18236 | 4178 ft | 252 kts | 331° |
| 2026-05-09 10:09 | 48.98074 | 2.17523 | 4039 ft | 242 kts | 358° |
| 2026-05-09 10:09 | 48.99441 | 2.17795 | 3900 ft | 230 kts | 25° |
| 2026-05-09 10:09 | 49.00573 | 2.19040 | 3757 ft | 218 kts | 55° |
| 2026-05-09 10:10 | 49.01081 | 2.20763 | 3617 ft | 208 kts | 84° |
| 2026-05-09 10:10 | 49.01010 | 2.22599 | 3491 ft | 201 kts | 101° |
| 2026-05-09 10:10 | 49.00747 | 2.24311 | 3368 ft | 195 kts | 104° |
| 2026-05-09 10:10 | 49.00451 | 2.25990 | 3243 ft | 190 kts | 105° |
| 2026-05-09 10:11 | 49.00152 | 2.27649 | 3118 ft | 185 kts | 105° |
| 2026-05-09 10:11 | 48.99869 | 2.29214 | 3001 ft | 179 kts | 104° |
| 2026-05-09 10:11 | 48.99591 | 2.30745 | 2980 ft | 173 kts | 104° |
| 2026-05-09 10:11 | 48.99325 | 2.32213 | 2981 ft | 174 kts | 105° |
| 2026-05-09 10:12 | 48.99054 | 2.33712 | 2983 ft | 174 kts | 105° |
| 2026-05-09 10:12 | 48.98788 | 2.35178 | 2968 ft | 174 kts | 105° |
| 2026-05-09 10:12 | 48.98554 | 2.36696 | 2834 ft | 174 kts | 99° |
| 2026-05-09 10:12 | 48.98442 | 2.38251 | 2639 ft | 174 kts | 92° |
| 2026-05-09 10:13 | 48.98434 | 2.39799 | 2447 ft | 173 kts | 88° |
| 2026-05-09 10:13 | 48.98492 | 2.41366 | 2254 ft | 173 kts | 86° |
| 2026-05-09 10:13 | 48.98578 | 2.42974 | 2079 ft | 170 kts | 85° |
| 2026-05-09 10:13 | 48.98659 | 2.44419 | 1936 ft | 164 kts | 85° |
| 2026-05-09 10:14 | 48.98733 | 2.45831 | 1735 ft | 162 kts | 84° |
| 2026-05-09 10:14 | 48.98807 | 2.47261 | 1540 ft | 152 kts | 85° |
| 2026-05-09 10:14 | 48.98873 | 2.48533 | 1361 ft | 142 kts | 86° |
| 2026-05-09 10:14 | 48.98935 | 2.49755 | 1200 ft | 132 kts | 85° |
| 2026-05-09 10:15 | 48.98991 | 2.50856 | 1058 ft | 126 kts | 83° |
| 2026-05-09 10:15 | 48.99049 | 2.51931 | 933 ft | 124 kts | 83° |
| 2026-05-09 10:15 | 48.99106 | 2.52972 | 826 ft | 124 kts | 85° |
| 2026-05-09 10:15 | 48.99153 | 2.54041 | 688 ft | 124 kts | 85° |
| 2026-05-09 10:16 | 48.99215 | 2.55132 | 546 ft | 123 kts | 83° |
| 2026-05-09 10:16 | 48.99275 | 2.56216 | 416 ft | 123 kts | 83° |
| 2026-05-09 10:16 | 48.99332 | 2.57299 | 334 ft | 118 kts | 84° |
| 2026-05-09 10:16 | 48.99386 | 2.58186 | 325 ft | 79 kts | 86° |
| 2026-05-09 10:17 | 48.99407 | 2.58716 | 322 ft | 37 kts | 88° |
| 2026-05-09 10:17 | 48.99429 | 2.59042 | 316 ft | 35 kts | 80° |
| 2026-05-09 10:17 | 48.99484 | 2.59312 | 314 ft | 30 kts | 63° |
| 2026-05-09 10:17 | 48.99561 | 2.59558 | 314 ft | 29 kts | 65° |
| 2026-05-09 10:18 | 48.99679 | 2.59687 | 314 ft | 26 kts | 359° |
| 2026-05-09 10:18 | 48.99825 | 2.59669 | 317 ft | 24 kts | 353° |
| 2026-05-09 10:18 | 48.99956 | 2.59655 | 324 ft | 20 kts | 355° |
| 2026-05-09 10:18 | 49.00056 | 2.59606 | 328 ft | 18 kts | 304° |
| 2026-05-09 10:19 | 49.00069 | 2.59444 | 328 ft | 21 kts | 265° |
| 2026-05-09 10:19 | 49.00061 | 2.59254 | 328 ft | 23 kts | 265° |
| 2026-05-09 10:19 | 49.00051 | 2.59047 | 328 ft | 23 kts | 264° |
| 2026-05-09 10:19 | 49.00099 | 2.58894 | 329 ft | 20 kts | 346° |
| 2026-05-09 10:20 | 49.00194 | 2.58913 | 330 ft | 14 kts | 63° |
| 2026-05-09 10:20 | 49.00200 | 2.59010 | 330 ft | 4 kts | 85° |
| 2026-05-09 10:20 | 49.00201 | 2.59030 | 330 ft | 0 kts | 86° |